This is the latest recevied weather packets stored in our database for station/object KB9ZI. If no packets are shown the sender has not sent any weather packets the latest 10 day(s).
| Time | Temp. | Humidity | Pressure | Rain* | Wind** | Luminosity | Snow |
|---|---|---|---|---|---|---|---|
| 1777581488 | 12.22° C | 46% | 1016.7 hPa | 0 mm | - | - | - |
| 1777581428 | 12.22° C | 45% | 1016.7 hPa | 0 mm | - | - | - |
| 1777581249 | 12.22° C | 47% | 1016.6 hPa | 0 mm | - | - | - |
| 1777581125 | 12.22° C | 48% | 1016.6 hPa | 0 mm | - | - | - |
| 1777581008 | 11.67° C | 46% | 1016.8 hPa | 0 mm | - | - | - |
| 1777580893 | 11.67° C | 50% | 1016.7 hPa | 0 mm | - | - | - |
| 1777580764 | 11.67° C | 50% | 1016.7 hPa | 0 mm | - | - | - |
| 1777580710 | 11.67° C | 50% | 1016.7 hPa | 0 mm | - | - | - |
| 1777580511 | 11.67° C | 48% | 1016.8 hPa | 0 mm | - | - | - |
| 1777580447 | 11.67° C | 48% | 1016.7 hPa | 0 mm | - | - | - |
| 1777580256 | 11.11° C | 48% | 1016.7 hPa | 0 mm | - | - | - |
| 1777580133 | 11.67° C | 46% | 1016.7 hPa | 0 mm | - | - | - |
| 1777580104 | 11.67° C | 46% | 1016.7 hPa | 0 mm | - | - | - |
| 1777579894 | 11.67° C | 51% | 1016.7 hPa | 0 mm | - | - | - |
| 1777579771 | 11.11° C | 49% | 1016.7 hPa | 0 mm | - | - | - |
| 1777579651 | 10.56° C | 46% | 1016.9 hPa | 0 mm | - | - | - |
| 1777579537 | 11.11° C | 46% | 1017 hPa | 0 mm | - | - | - |
| 1777579501 | 11.11° C | 47% | 1017.1 hPa | 0 mm | - | - | - |
| 1777579295 | 11.67° C | 47% | 1017.1 hPa | 0 mm | - | - | - |
| 1777579174 | 11.67° C | 49% | 1017.1 hPa | 0 mm | - | - | - |
| 1777579060 | 11.11° C | 52% | 1017 hPa | 0 mm | - | - | - |
| 1777578931 | 11.11° C | 51% | 1017 hPa | 0 mm | - | - | - |
| 1777578810 | 11.11° C | 51% | 1017 hPa | 0 mm | - | - | - |
| 1777578691 | 11.11° C | 51% | 1017.1 hPa | 0 mm | - | - | - |
| 1777578617 | 10.56° C | 51% | 1017.1 hPa | 0 mm | - | - | - |
* Rain latest hour (hover to see other rain measurements)
** Current wind speed in m/s (hover to see current wind gust speed)